メインページ
METAR-TAF:

METAR-TAF

空港 :

アンマン, ヨルダン

緯度: 31-59N, 経度: 035-59E, 海抜: 767m

現時点の気象観測

当レポートは50分前の11:00(UTC)に作成
西の風 8kt
気温 23°C
湿度 33%
気圧 1018 hPa
視程: 5000m
高度3000ftの雲はほとんどない
煙霧

METAR: OJAM 241100Z 27008KT 5000 HZ FEW030 23/06 Q1018 NOSIG

時間: 14:50 (11:50 UTC)

予報

当レポートは1時間16分前の10:34(UTC)に作成
予報は24日の 12時(UTC)から 25日の 18時(UTC)まで有効
西の風 12kt
視程: 5000m
高度3000ftの雲は散在している
煙霧
24日の 17時(UTC)から 24日の 20時(UTC)まで徐々に
西の風 4kt
視程: 6000m
高度3000ftの雲はほとんどない

TAF: OJAM 241034Z 2412/2518 28012KT 5000 HZ SCT030 BECMG 2417/2420 26004KT 6000 FEW030

4,000以上の空港の気象観測と天気予報(METAR報とTAF報)

利用可能な観測所は地図上に黄色い丸と赤い丸で示す。

丸の上にカーソルを重ねると観測所名を参照できる。

次にクリックすると気象観測と天気予報を参照できる。

マップの切り替え:黒色「×」印の緑ボタンをクリックして拡大、「-」印の緑ボタンをクリックして縮小、緑色の三角印をクリックして隣りの地図に切り替え


METAR-TAF: